createdAt,value
2023-02-26T00:01:41.299Z,0.53
2023-02-26T00:04:10.634Z,0.40
2023-02-26T00:06:52.449Z,0.50
2023-02-26T00:09:21.304Z,0.40
2023-02-26T00:11:50.136Z,0.60
2023-02-26T00:14:18.611Z,0.50
2023-02-26T00:16:48.762Z,0.50
2023-02-26T00:19:16.866Z,0.53
2023-02-26T00:21:46.614Z,0.57
2023-02-26T00:24:14.453Z,0.50
2023-02-26T00:26:42.191Z,0.63
2023-02-26T00:29:10.621Z,0.60
2023-02-26T00:31:39.208Z,0.70
2023-02-26T00:34:07.526Z,0.60
2023-02-26T00:36:41.161Z,0.70
2023-02-26T00:39:17.311Z,0.50
2023-02-26T00:41:45.675Z,0.50
2023-02-26T00:44:15.299Z,0.60
2023-02-26T00:46:46.974Z,0.50
2023-02-26T00:49:22.852Z,0.50
2023-02-26T00:51:53.783Z,0.80
2023-02-26T00:54:24.692Z,0.40
2023-02-26T00:56:53.436Z,0.50
2023-02-26T00:59:21.699Z,0.50
2023-02-26T01:01:50.431Z,0.40
2023-02-26T01:04:20.684Z,0.47
2023-02-26T01:06:50.675Z,0.50
2023-02-26T01:09:26.143Z,0.50
2023-02-26T01:11:54.691Z,0.40
2023-02-26T01:14:23.038Z,0.50
2023-02-26T01:16:54.975Z,0.50
2023-02-26T01:19:31.394Z,0.40
2023-02-26T01:22:05.017Z,0.40
2023-02-26T01:24:35.733Z,0.37
2023-02-26T01:27:03.948Z,0.40
2023-02-26T01:29:32.139Z,0.40
2023-02-26T01:32:04.886Z,0.30
2023-02-26T01:34:36.464Z,0.40
2023-02-26T01:37:07.621Z,0.40
2023-02-26T01:39:41.076Z,0.33
2023-02-26T01:42:16.612Z,0.30
2023-02-26T01:44:56.990Z,0.60
2023-02-26T01:47:30.123Z,0.30
2023-02-26T01:49:58.300Z,0.20
2023-02-26T01:53:05.530Z,0.20
2023-02-26T01:55:34.737Z,0.20
2023-02-26T01:58:03.324Z,0.20
2023-02-26T02:00:31.990Z,0.10
2023-02-26T02:02:59.845Z,0.20
2023-02-26T02:05:31.656Z,0.30
2023-02-26T02:07:59.914Z,0.10
2023-02-26T02:10:28.306Z,0.47
2023-02-26T02:13:04.993Z,0.20
2023-02-26T02:15:41.624Z,0.10
2023-02-26T02:18:14.661Z,0.30
2023-02-26T02:21:01.067Z,0.20
2023-02-26T02:23:34.104Z,0.30
2023-02-26T02:26:34.453Z,0.30
2023-02-26T02:29:24.820Z,0.30
2023-02-26T02:31:58.430Z,0.30
2023-02-26T02:34:31.693Z,0.33
2023-02-26T02:37:02.786Z,0.20
2023-02-26T02:39:32.299Z,0.30
2023-02-26T02:42:04.501Z,0.27
2023-02-26T02:44:34.171Z,0.20
2023-02-26T02:47:05.378Z,0.30
2023-02-26T02:49:37.659Z,0.20
2023-02-26T02:52:10.919Z,0.20
2023-02-26T02:54:43.227Z,0.20
2023-02-26T02:57:13.614Z,0.20
2023-02-26T02:59:44.389Z,0.20
2023-02-26T03:02:17.972Z,0.10
2023-02-26T03:04:46.375Z,0.30
2023-02-26T03:07:14.258Z,0.20
2023-02-26T03:09:42.177Z,0.30
2023-02-26T03:12:09.942Z,0.30
2023-02-26T03:14:38.252Z,0.20
2023-02-26T03:17:21.539Z,0.30
2023-02-26T03:20:00.397Z,0.30
2023-02-26T03:22:33.634Z,0.20
2023-02-26T03:25:05.215Z,0.30
2023-02-26T03:27:37.290Z,0.20
2023-02-26T03:30:08.321Z,0.20
2023-02-26T03:32:43.413Z,0.20
2023-02-26T03:35:15.937Z,0.30
2023-02-26T03:37:46.117Z,0.30
2023-02-26T03:40:22.099Z,0.20
2023-02-26T03:42:54.969Z,0.20
2023-02-26T03:45:26.192Z,0.20
2023-02-26T03:47:55.910Z,0.27
2023-02-26T03:50:27.691Z,0.37
2023-02-26T03:52:55.828Z,0.20
2023-02-26T03:55:27.243Z,0.27
2023-02-26T03:57:55.499Z,0.30
2023-02-26T04:00:23.536Z,0.30
2023-02-26T04:02:59.688Z,0.30
2023-02-26T04:05:29.512Z,0.30
2023-02-26T04:07:58.422Z,0.30
2023-02-26T04:10:31.078Z,0.30
2023-02-26T04:13:00.920Z,0.20
2023-02-26T04:15:28.821Z,0.40
2023-02-26T04:17:58.080Z,0.30
2023-02-26T04:20:26.015Z,0.30
2023-02-26T04:22:53.863Z,0.23
2023-02-26T04:25:21.870Z,0.30
2023-02-26T04:27:49.649Z,0.30
2023-02-26T04:30:17.857Z,0.20
2023-02-26T04:32:45.605Z,0.30
2023-02-26T04:35:15.072Z,0.30
2023-02-26T04:37:42.918Z,0.20
2023-02-26T04:40:11.744Z,0.20
2023-02-26T04:42:39.477Z,0.23
2023-02-26T04:45:08.205Z,0.40
2023-02-26T04:47:36.052Z,0.37
2023-02-26T04:50:03.922Z,0.23
2023-02-26T04:52:33.192Z,0.30
2023-02-26T04:55:00.977Z,0.30
2023-02-26T04:57:28.747Z,0.30
2023-02-26T04:59:56.525Z,0.30
2023-02-26T05:02:24.360Z,0.23
2023-02-26T05:04:52.277Z,0.30
2023-02-26T05:07:20.073Z,0.20
2023-02-26T05:09:49.267Z,0.30
2023-02-26T05:12:17.113Z,0.30
2023-02-26T05:14:44.917Z,0.30
2023-02-26T05:17:12.841Z,0.20
2023-02-26T05:19:40.606Z,0.27
2023-02-26T05:22:08.352Z,0.20
2023-02-26T05:24:36.227Z,0.20
2023-02-26T05:27:05.357Z,0.20
2023-02-26T05:29:33.221Z,0.20
2023-02-26T05:32:00.962Z,0.30
2023-02-26T05:34:28.762Z,0.20
2023-02-26T05:39:31.743Z,0.30
2023-02-26T05:41:59.901Z,0.20
2023-02-26T05:44:29.314Z,0.70
2023-02-26T05:46:57.137Z,2.03
2023-02-26T05:49:24.926Z,0.80
2023-02-26T05:51:52.743Z,0.40
2023-02-26T05:54:20.641Z,0.40
2023-02-26T05:56:48.457Z,0.20
2023-02-26T05:59:16.323Z,0.30
2023-02-26T06:01:45.604Z,0.17
2023-02-26T06:04:13.554Z,0.30
2023-02-26T06:06:41.335Z,0.20
2023-02-26T06:09:09.283Z,0.20
2023-02-26T06:11:38.500Z,0.20
2023-02-26T06:14:06.381Z,0.20
2023-02-26T06:16:35.823Z,0.20
2023-02-26T06:19:05.098Z,0.30
2023-02-26T06:21:32.936Z,0.40
2023-02-26T06:24:00.727Z,0.20
2023-02-26T06:26:28.805Z,0.40
2023-02-26T06:28:57.335Z,0.23
2023-02-26T06:31:25.257Z,0.40
2023-02-26T06:33:53.097Z,0.40
2023-02-26T06:36:22.324Z,0.27
2023-02-26T06:38:50.198Z,0.30
2023-02-26T06:41:17.960Z,0.30
2023-02-26T06:43:45.794Z,0.23
2023-02-26T06:46:13.737Z,0.30
2023-02-26T06:48:42.616Z,0.20
2023-02-26T06:51:10.378Z,0.20
2023-02-26T06:53:39.473Z,0.20
2023-02-26T06:56:07.861Z,0.30
2023-02-26T06:58:35.714Z,0.20
2023-02-26T07:01:04.746Z,0.30
2023-02-26T07:03:32.543Z,0.27
2023-02-26T07:06:18.679Z,0.27
2023-02-26T07:08:49.588Z,0.20
2023-02-26T07:11:17.445Z,0.40
2023-02-26T07:13:45.233Z,0.30
2023-02-26T07:16:13.049Z,0.20
2023-02-26T07:18:40.957Z,0.20
2023-02-26T07:21:08.774Z,0.20
2023-02-26T07:23:36.739Z,0.20
2023-02-26T07:26:06.118Z,0.37
2023-02-26T07:28:33.948Z,0.30
2023-02-26T07:31:01.838Z,0.30
2023-02-26T07:33:31.770Z,0.30
2023-02-26T07:35:59.618Z,0.30
2023-02-26T07:38:27.504Z,0.23
2023-02-26T07:40:56.073Z,0.30
2023-02-26T07:43:25.583Z,0.33
2023-02-26T07:45:54.136Z,0.20
2023-02-26T07:48:22.076Z,0.33
2023-02-26T07:50:52.857Z,0.50
2023-02-26T07:53:20.869Z,0.40
2023-02-26T07:55:49.026Z,0.40
2023-02-26T07:58:16.913Z,0.30
2023-02-26T08:00:46.162Z,0.30
2023-02-26T08:03:15.395Z,0.30
2023-02-26T08:05:43.246Z,0.30
2023-02-26T08:08:11.229Z,0.30
2023-02-26T08:10:42.249Z,0.30
2023-02-26T08:13:10.325Z,0.40
2023-02-26T08:15:38.219Z,0.40
2023-02-26T08:18:07.808Z,0.30
2023-02-26T08:20:35.563Z,0.30
2023-02-26T08:23:03.496Z,0.40
2023-02-26T08:25:31.358Z,0.43
2023-02-26T08:27:59.163Z,0.30
2023-02-26T08:30:26.921Z,0.30
2023-02-26T08:32:54.760Z,0.40
2023-02-26T08:35:23.983Z,0.40
2023-02-26T08:37:52.835Z,0.40
2023-02-26T08:40:23.059Z,0.30
2023-02-26T08:42:51.032Z,0.40
2023-02-26T08:45:19.009Z,0.40
2023-02-26T08:47:56.605Z,0.40
2023-02-26T08:50:28.309Z,0.60
2023-02-26T08:52:56.442Z,0.50
2023-02-26T08:55:26.182Z,0.30
2023-02-26T08:57:54.017Z,0.40
2023-02-26T09:00:22.777Z,0.30
2023-02-26T09:02:50.897Z,0.50
2023-02-26T09:05:19.109Z,0.50
2023-02-26T09:07:48.424Z,0.50
2023-02-26T09:10:16.971Z,0.60
2023-02-26T09:12:45.273Z,0.50
2023-02-26T09:15:14.448Z,0.50
2023-02-26T09:17:42.513Z,0.37
2023-02-26T09:20:12.590Z,0.50
2023-02-26T09:22:40.530Z,0.40
2023-02-26T09:25:10.811Z,0.50
2023-02-26T09:27:38.883Z,0.40
2023-02-26T09:30:08.159Z,0.40
2023-02-26T09:32:38.686Z,0.70
2023-02-26T09:35:07.300Z,0.60
2023-02-26T09:37:35.799Z,0.50
2023-02-26T09:40:04.349Z,0.50
2023-02-26T09:42:42.351Z,0.43
2023-02-26T09:45:23.158Z,0.60
2023-02-26T09:47:54.126Z,0.60
2023-02-26T09:50:25.372Z,0.40
2023-02-26T09:52:56.559Z,0.50
2023-02-26T09:55:28.993Z,0.50
2023-02-26T09:58:00.696Z,0.50
2023-02-26T10:00:34.324Z,0.60
2023-02-26T10:03:13.356Z,0.80
2023-02-26T10:05:44.285Z,0.53
2023-02-26T10:08:16.356Z,0.40
2023-02-26T10:10:51.447Z,0.60
2023-02-26T10:13:25.268Z,0.70
2023-02-26T10:15:53.659Z,0.50
2023-02-26T10:18:24.811Z,0.50
2023-02-26T10:20:56.686Z,0.50
2023-02-26T10:23:35.458Z,0.70
2023-02-26T10:26:11.816Z,0.40
2023-02-26T10:28:48.998Z,0.40
2023-02-26T10:31:25.863Z,0.60
2023-02-26T10:34:02.582Z,0.60
2023-02-26T10:36:33.618Z,0.90
2023-02-26T10:39:04.791Z,0.60
2023-02-26T10:41:35.691Z,0.60
2023-02-26T10:44:10.470Z,0.63
2023-02-26T10:46:43.550Z,0.53
2023-02-26T10:49:35.461Z,0.50
2023-02-26T10:52:13.168Z,0.57
2023-02-26T10:54:47.999Z,0.53
2023-02-26T10:57:20.558Z,0.80
2023-02-26T10:59:49.802Z,0.50
2023-02-26T11:02:35.378Z,0.60
2023-02-26T11:05:07.892Z,0.43
2023-02-26T11:07:38.025Z,0.40
2023-02-26T11:10:09.310Z,0.53
2023-02-26T11:12:39.382Z,0.50
2023-02-26T11:15:15.008Z,0.67
2023-02-26T11:17:42.892Z,0.50
2023-02-26T11:20:18.629Z,0.80
2023-02-26T11:22:49.337Z,0.80
2023-02-26T11:25:20.013Z,0.97
2023-02-26T11:27:52.843Z,0.87
2023-02-26T11:30:23.877Z,0.90
2023-02-26T11:32:53.374Z,0.90
2023-02-26T11:35:24.783Z,0.70
2023-02-26T11:37:57.737Z,1.13
2023-02-26T11:40:32.206Z,0.90
2023-02-26T11:43:02.048Z,0.70
2023-02-26T11:45:31.342Z,0.50
2023-02-26T11:48:02.258Z,0.70
2023-02-26T11:50:31.255Z,0.70
2023-02-26T11:53:07.341Z,0.60
2023-02-26T11:55:38.558Z,0.70
2023-02-26T11:58:22.036Z,0.70
2023-02-26T12:00:53.616Z,0.83
2023-02-26T12:03:23.488Z,1.40
2023-02-26T12:05:53.276Z,1.60
2023-02-26T12:08:25.038Z,1.13
2023-02-26T12:11:06.156Z,0.80
2023-02-26T12:13:38.546Z,0.90
2023-02-26T12:16:14.849Z,0.70
2023-02-26T12:18:51.345Z,0.60
2023-02-26T12:21:30.347Z,0.80
2023-02-26T12:24:17.177Z,0.90
2023-02-26T12:26:51.840Z,0.50
2023-02-26T12:29:30.879Z,0.70
2023-02-26T12:32:14.969Z,0.50
2023-02-26T12:35:16.750Z,0.60
2023-02-26T12:37:53.099Z,0.80
2023-02-26T12:40:33.856Z,0.70
2023-02-26T12:43:06.296Z,0.60
2023-02-26T12:45:43.847Z,0.60
2023-02-26T12:48:45.120Z,0.80
2023-02-26T12:51:21.370Z,0.60
2023-02-26T12:54:08.414Z,0.80
2023-02-26T12:57:00.968Z,0.57
2023-02-26T12:59:48.542Z,0.60
2023-02-26T13:02:59.002Z,0.60
2023-02-26T13:05:37.523Z,0.70
2023-02-26T13:08:14.011Z,0.60
2023-02-26T13:10:50.461Z,0.70
2023-02-26T13:13:31.129Z,0.57
2023-02-26T13:16:11.070Z,0.60
2023-02-26T13:18:45.358Z,0.70
2023-02-26T13:21:18.141Z,0.70
2023-02-26T13:23:50.935Z,0.93
2023-02-26T13:26:19.344Z,0.83
2023-02-26T13:28:52.055Z,1.30
2023-02-26T13:31:25.344Z,1.07
2023-02-26T13:33:56.458Z,0.83
2023-02-26T13:36:26.814Z,0.70
2023-02-26T13:39:05.049Z,1.00
2023-02-26T13:41:40.777Z,1.00
2023-02-26T13:44:20.166Z,1.00
2023-02-26T13:46:56.474Z,0.80
2023-02-26T13:49:30.125Z,0.80
2023-02-26T13:51:59.529Z,0.77
2023-02-26T13:54:36.203Z,0.80
2023-02-26T13:57:09.267Z,0.70
2023-02-26T13:59:46.879Z,0.60
2023-02-26T14:02:45.006Z,0.70
2023-02-26T14:05:33.367Z,0.73
2023-02-26T14:08:27.682Z,0.70
2023-02-26T14:10:58.941Z,0.80
2023-02-26T14:13:37.583Z,0.80
2023-02-26T14:16:13.063Z,0.70
2023-02-26T14:18:44.504Z,0.80
2023-02-26T14:21:38.456Z,0.80
2023-02-26T14:24:16.168Z,0.90
2023-02-26T14:26:47.697Z,1.03
2023-02-26T14:29:24.134Z,0.70
2023-02-26T14:32:10.041Z,0.83
2023-02-26T14:34:41.910Z,0.77
2023-02-26T14:37:16.201Z,1.00
2023-02-26T14:39:48.208Z,0.77
2023-02-26T14:42:24.774Z,0.90
2023-02-26T14:44:55.710Z,0.90
2023-02-26T14:47:23.599Z,0.83
2023-02-26T14:49:58.161Z,0.80
2023-02-26T14:52:37.434Z,0.80
2023-02-26T14:55:35.298Z,0.80
2023-02-26T14:58:16.507Z,0.70
2023-02-26T15:00:51.064Z,0.70
2023-02-26T15:03:41.689Z,0.83
2023-02-26T15:06:21.576Z,0.50
2023-02-26T15:08:59.048Z,0.70
2023-02-26T15:12:08.252Z,0.63
2023-02-26T15:14:51.201Z,0.70
2023-02-26T15:17:29.595Z,0.60
2023-02-26T15:20:11.241Z,0.60
2023-02-26T15:22:52.739Z,0.80
2023-02-26T15:25:29.130Z,0.67
2023-02-26T15:27:57.818Z,0.70
2023-02-26T15:30:27.415Z,0.97
2023-02-26T15:32:58.776Z,1.10
2023-02-26T15:35:29.118Z,1.10
2023-02-26T15:40:31.811Z,1.50
2023-02-26T15:43:02.032Z,1.10
2023-02-26T15:45:35.025Z,1.03
2023-02-26T15:48:06.554Z,0.70
2023-02-26T15:50:37.326Z,0.80
2023-02-26T15:53:07.713Z,0.60
2023-02-26T15:55:38.022Z,0.90
2023-02-26T15:58:08.188Z,1.10
2023-02-26T16:00:39.453Z,0.80
2023-02-26T16:03:07.374Z,0.90
2023-02-26T16:05:35.146Z,0.70
2023-02-26T16:08:03.178Z,0.80
2023-02-26T16:10:34.708Z,0.77
2023-02-26T16:13:03.214Z,0.87
2023-02-26T16:15:33.720Z,1.13
2023-02-26T16:18:05.531Z,1.07
2023-02-26T16:20:37.957Z,1.03
2023-02-26T16:23:07.426Z,0.90
2023-02-26T16:25:37.580Z,0.80
2023-02-26T16:28:07.174Z,0.80
2023-02-26T16:30:37.752Z,0.73
2023-02-26T16:33:12.385Z,1.00
2023-02-26T16:35:43.699Z,0.80
2023-02-26T16:38:17.612Z,1.10
2023-02-26T16:40:45.798Z,0.80
2023-02-26T16:43:36.590Z,0.97
2023-02-26T16:46:05.721Z,1.07
2023-02-26T16:48:39.257Z,1.00
2023-02-26T16:51:10.136Z,1.30
2023-02-26T16:53:40.322Z,1.50
2023-02-26T16:56:08.154Z,1.33
2023-02-26T16:58:36.016Z,1.20
2023-02-26T17:01:08.841Z,0.90
2023-02-26T17:03:39.428Z,1.03
2023-02-26T17:06:11.652Z,1.00
2023-02-26T17:08:47.499Z,1.10
2023-02-26T17:11:21.143Z,1.37
2023-02-26T17:13:59.433Z,1.00
2023-02-26T17:16:27.484Z,1.30
2023-02-26T17:18:56.799Z,1.20
2023-02-26T17:21:24.796Z,1.10
2023-02-26T17:23:52.785Z,1.10
2023-02-26T17:26:20.548Z,1.20
2023-02-26T17:28:48.385Z,1.27
2023-02-26T17:31:16.507Z,1.20
2023-02-26T17:33:45.647Z,1.17
2023-02-26T17:36:20.306Z,0.90
2023-02-26T17:38:50.045Z,0.93
2023-02-26T17:41:19.463Z,1.03
2023-02-26T17:43:47.196Z,1.10
2023-02-26T17:46:15.114Z,0.80
2023-02-26T17:48:42.889Z,0.90
2023-02-26T17:51:13.804Z,0.90
2023-02-26T17:53:46.596Z,1.10
2023-02-26T17:56:21.192Z,0.90
2023-02-26T17:58:51.408Z,0.90
2023-02-26T18:01:19.217Z,1.00
2023-02-26T18:03:47.207Z,0.90
2023-02-26T18:06:15.754Z,0.90
2023-02-26T18:08:46.691Z,1.00
2023-02-26T18:11:14.598Z,0.90
2023-02-26T18:13:42.497Z,1.00
2023-02-26T18:16:16.120Z,1.20
2023-02-26T18:18:44.226Z,1.00
2023-02-26T18:21:13.008Z,1.07
2023-02-26T18:23:40.906Z,0.90
2023-02-26T18:26:11.681Z,1.20
2023-02-26T18:28:39.562Z,0.90
2023-02-26T18:31:09.239Z,0.90
2023-02-26T18:33:40.570Z,1.10
2023-02-26T18:36:10.680Z,1.10
2023-02-26T18:38:38.463Z,1.33
2023-02-26T18:41:06.435Z,1.10
2023-02-26T18:43:35.624Z,0.90
2023-02-26T18:46:03.461Z,1.17
2023-02-26T18:48:31.318Z,0.83
2023-02-26T18:50:59.445Z,1.00
2023-02-26T18:53:27.638Z,0.93
2023-02-26T18:55:58.107Z,0.70
2023-02-26T18:58:25.894Z,1.17
2023-02-26T19:00:59.115Z,1.20
2023-02-26T19:03:27.266Z,1.00
2023-02-26T19:05:59.082Z,1.30
2023-02-26T19:08:27.012Z,1.30
2023-02-26T19:10:55.009Z,0.90
2023-02-26T19:13:23.985Z,0.83
2023-02-26T19:15:52.009Z,0.70
2023-02-26T19:18:21.294Z,0.80
2023-02-26T19:20:49.315Z,0.80
2023-02-26T19:23:17.194Z,0.80
2023-02-26T19:25:45.007Z,0.60
2023-02-26T19:28:12.781Z,0.80
2023-02-26T19:30:40.873Z,0.80
2023-02-26T19:33:08.674Z,0.70
2023-02-26T19:35:37.834Z,0.80
2023-02-26T19:40:40.877Z,0.80
2023-02-26T19:43:10.968Z,0.93
2023-02-26T19:45:38.895Z,0.80
2023-02-26T19:48:06.718Z,0.80
2023-02-26T19:50:34.997Z,0.80
2023-02-26T19:53:04.596Z,0.73
2023-02-26T19:55:32.497Z,0.70
2023-02-26T19:58:00.460Z,0.70
2023-02-26T20:00:28.252Z,0.90
2023-02-26T20:02:56.402Z,0.90
2023-02-26T20:05:24.265Z,0.73
2023-02-26T20:07:52.037Z,0.70
2023-02-26T20:10:23.558Z,0.73
2023-02-26T20:12:51.466Z,0.90
2023-02-26T20:15:19.691Z,0.70
2023-02-26T20:17:47.432Z,0.80
2023-02-26T20:20:15.364Z,0.80
2023-02-26T20:22:43.143Z,0.70
2023-02-26T20:25:11.094Z,0.93
2023-02-26T20:27:40.332Z,0.80
2023-02-26T20:30:09.528Z,0.80
2023-02-26T20:32:37.478Z,0.80
2023-02-26T20:35:06.703Z,0.60
2023-02-26T20:37:34.578Z,0.70
2023-02-26T20:40:02.569Z,0.60
2023-02-26T20:42:30.378Z,0.70
2023-02-26T20:44:59.547Z,0.70
2023-02-26T20:47:27.366Z,0.90
2023-02-26T20:49:55.192Z,0.70
2023-02-26T20:52:24.086Z,0.83
2023-02-26T20:54:51.910Z,0.73
2023-02-26T20:57:19.731Z,0.80
2023-02-26T20:59:47.531Z,0.87
2023-02-26T21:02:20.616Z,0.73
2023-02-26T21:04:48.928Z,0.87
2023-02-26T21:07:21.826Z,0.87
2023-02-26T21:09:50.116Z,1.03
2023-02-26T21:12:18.388Z,1.33
2023-02-26T21:14:46.317Z,1.00
2023-02-26T21:17:14.240Z,0.67
2023-02-26T21:19:43.577Z,0.90
2023-02-26T21:22:11.442Z,0.63
2023-02-26T21:24:39.336Z,0.70
2023-02-26T21:27:07.093Z,0.70
2023-02-26T21:29:34.902Z,0.77
2023-02-26T21:32:04.015Z,0.80
2023-02-26T21:34:34.882Z,0.67
2023-02-26T21:37:04.634Z,0.80
2023-02-26T21:39:32.918Z,0.70
2023-02-26T21:42:03.260Z,0.80
2023-02-26T21:44:32.246Z,0.80
2023-02-26T21:47:00.267Z,0.73
2023-02-26T21:49:30.840Z,0.70
2023-02-26T21:51:59.024Z,0.60
2023-02-26T21:54:28.617Z,0.70
2023-02-26T21:56:56.608Z,0.70
2023-02-26T21:59:24.715Z,0.60
2023-02-26T22:01:53.340Z,0.63
2023-02-26T22:04:21.887Z,0.60
2023-02-26T22:06:49.683Z,0.60
2023-02-26T22:09:19.136Z,0.70
2023-02-26T22:11:48.471Z,0.50
2023-02-26T22:14:16.405Z,0.60
2023-02-26T22:16:44.291Z,0.60
2023-02-26T22:19:12.213Z,0.80
2023-02-26T22:21:40.026Z,0.60
2023-02-26T22:24:08.710Z,0.60
2023-02-26T22:26:36.591Z,0.50
2023-02-26T22:29:05.859Z,0.50
2023-02-26T22:31:34.044Z,0.50
2023-02-26T22:34:01.969Z,0.77
2023-02-26T22:36:31.220Z,0.57
2023-02-26T22:38:59.317Z,0.70
2023-02-26T22:41:27.148Z,0.70
2023-02-26T22:43:55.060Z,0.73
2023-02-26T22:46:25.433Z,0.60
2023-02-26T22:48:53.807Z,0.70
2023-02-26T22:51:21.630Z,0.60
2023-02-26T22:53:49.446Z,0.50
2023-02-26T22:56:17.963Z,0.60
2023-02-26T22:58:46.113Z,0.70
2023-02-26T23:01:14.023Z,0.70
2023-02-26T23:03:43.129Z,0.70
2023-02-26T23:06:10.947Z,0.60
2023-02-26T23:08:38.958Z,0.40
2023-02-26T23:11:07.618Z,0.80
2023-02-26T23:13:36.261Z,0.50
2023-02-26T23:16:05.017Z,0.73
2023-02-26T23:18:34.152Z,0.80
2023-02-26T23:21:04.025Z,0.60
2023-02-26T23:23:31.796Z,0.80
2023-02-26T23:25:59.708Z,0.80
2023-02-26T23:28:27.562Z,0.70
2023-02-26T23:30:55.402Z,0.70
2023-02-26T23:33:23.337Z,0.60
2023-02-26T23:35:51.125Z,0.80
2023-02-26T23:41:17.566Z,0.50
2023-02-26T23:43:47.789Z,0.50
2023-02-26T23:46:15.661Z,0.73
2023-02-26T23:48:43.533Z,0.67
2023-02-26T23:51:12.835Z,0.77
2023-02-26T23:53:42.074Z,0.70
2023-02-26T23:56:09.821Z,0.60
2023-02-26T23:58:37.563Z,0.60
